createdAt,value
2023-02-24T00:02:38.313Z,53.74
2023-02-24T00:07:32.343Z,53.75
2023-02-24T00:12:31.590Z,53.85
2023-02-24T00:17:28.125Z,53.75
2023-02-24T00:22:21.633Z,53.62
2023-02-24T00:27:14.741Z,53.74
2023-02-24T00:32:13.535Z,53.57
2023-02-24T00:37:10.186Z,53.46
2023-02-24T00:42:05.435Z,53.65
2023-02-24T00:46:57.552Z,53.62
2023-02-24T00:51:54.853Z,53.61
2023-02-24T00:56:48.937Z,53.45
2023-02-24T01:01:41.560Z,53.21
2023-02-24T01:06:34.918Z,53.46
2023-02-24T01:11:51.494Z,53.25
2023-02-24T01:16:50.960Z,53.16
2023-02-24T01:21:44.049Z,53.20
2023-02-24T01:26:37.454Z,53.05
2023-02-24T01:31:32.941Z,53.06
2023-02-24T01:36:26.628Z,53.13
2023-02-24T01:41:27.776Z,53.09
2023-02-24T01:46:23.868Z,52.91
2023-02-24T01:51:16.976Z,52.88
2023-02-24T01:56:14.427Z,53.04
2023-02-24T02:01:09.609Z,52.94
2023-02-24T02:06:12.352Z,53.03
2023-02-24T02:11:11.017Z,53.00
2023-02-24T02:16:14.246Z,52.84
2023-02-24T02:21:40.672Z,52.88
2023-02-24T02:26:58.877Z,52.98
2023-02-24T02:32:09.752Z,53.02
2023-02-24T02:37:14.991Z,53.21
2023-02-24T02:42:30.992Z,53.40
2023-02-24T02:47:54.733Z,53.11
2023-02-24T02:53:04.316Z,53.11
2023-02-24T02:58:01.797Z,53.35
2023-02-24T03:03:04.630Z,53.25
2023-02-24T03:07:59.885Z,53.18
2023-02-24T03:12:55.799Z,53.13
2023-02-24T03:17:56.965Z,53.29
2023-02-24T03:23:12.025Z,53.13
2023-02-24T03:28:17.130Z,52.95
2023-02-24T03:33:17.539Z,53.22
2023-02-24T03:38:13.007Z,53.03
2023-02-24T03:43:22.627Z,52.98
2023-02-24T03:48:16.774Z,53.05
2023-02-24T03:53:34.458Z,53.20
2023-02-24T03:58:36.806Z,52.99
2023-02-24T04:03:41.036Z,52.83
2023-02-24T04:08:50.342Z,52.91
2023-02-24T04:13:52.177Z,52.93
2023-02-24T04:18:52.428Z,52.69
2023-02-24T04:23:45.899Z,52.69
2023-02-24T04:28:39.578Z,52.82
2023-02-24T04:33:34.522Z,52.75
2023-02-24T04:38:27.478Z,52.60
2023-02-24T04:43:21.211Z,52.47
2023-02-24T04:48:15.209Z,52.58
2023-02-24T04:53:09.920Z,52.41
2023-02-24T04:58:03.324Z,52.36
2023-02-24T05:02:57.611Z,52.45
2023-02-24T05:07:51.544Z,52.64
2023-02-24T05:12:45.478Z,52.50
2023-02-24T05:17:40.877Z,52.42
2023-02-24T05:22:33.116Z,52.48
2023-02-24T05:27:28.574Z,52.54
2023-02-24T05:32:23.040Z,52.34
2023-02-24T05:37:16.957Z,52.37
2023-02-24T05:42:10.275Z,52.45
2023-02-24T05:47:06.304Z,52.46
2023-02-24T05:52:02.892Z,52.54
2023-02-24T05:57:09.024Z,52.70
2023-02-24T06:02:07.902Z,52.64
2023-02-24T06:07:04.198Z,52.67
2023-02-24T06:11:57.222Z,52.80
2023-02-24T06:16:52.849Z,52.78
2023-02-24T06:21:45.537Z,52.87
2023-02-24T06:26:44.023Z,52.78
2023-02-24T06:31:36.941Z,52.80
2023-02-24T06:36:31.061Z,52.98
2023-02-24T06:41:24.085Z,52.89
2023-02-24T06:46:17.449Z,52.77
2023-02-24T06:51:14.096Z,52.74
2023-02-24T06:56:15.525Z,52.77
2023-02-24T07:01:12.248Z,52.65
2023-02-24T07:06:20.659Z,52.64
2023-02-24T07:11:14.911Z,52.49
2023-02-24T07:16:08.105Z,52.45
2023-02-24T07:21:05.271Z,52.60
2023-02-24T07:26:04.398Z,52.69
2023-02-24T07:30:58.603Z,52.52
2023-02-24T07:35:52.238Z,52.58
2023-02-24T07:40:47.549Z,52.36
2023-02-24T07:45:41.173Z,52.35
2023-02-24T07:50:35.831Z,52.05
2023-02-24T07:55:31.690Z,52.26
2023-02-24T08:00:29.113Z,52.08
2023-02-24T08:05:23.135Z,52.09
2023-02-24T08:10:27.020Z,52.06
2023-02-24T08:15:24.888Z,52.13
2023-02-24T08:20:18.471Z,52.03
2023-02-24T08:25:19.200Z,52.07
2023-02-24T08:30:23.791Z,52.19
2023-02-24T08:35:19.403Z,52.07
2023-02-24T08:40:32.639Z,52.07
2023-02-24T08:45:29.376Z,51.77
2023-02-24T08:50:22.773Z,51.99
2023-02-24T08:55:16.102Z,51.97
2023-02-24T09:00:28.864Z,51.71
2023-02-24T09:05:25.078Z,51.60
2023-02-24T09:10:19.275Z,51.06
2023-02-24T09:15:15.727Z,50.93
2023-02-24T09:20:30.021Z,50.75
2023-02-24T09:25:24.425Z,50.95
2023-02-24T09:30:36.168Z,50.72
2023-02-24T09:35:31.665Z,51.34
2023-02-24T09:40:40.300Z,51.07
2023-02-24T09:45:34.078Z,51.21
2023-02-24T09:51:04.677Z,51.12
2023-02-24T09:56:07.226Z,50.84
2023-02-24T10:01:21.877Z,51.09
2023-02-24T10:06:35.860Z,50.99
2023-02-24T10:11:33.805Z,50.89
2023-02-24T10:16:41.875Z,51.03
2023-02-24T10:21:50.082Z,50.92
2023-02-24T10:27:00.648Z,50.88
2023-02-24T10:32:24.590Z,50.67
2023-02-24T10:37:28.206Z,51.01
2023-02-24T10:42:33.182Z,50.86
2023-02-24T10:47:32.917Z,50.81
2023-02-24T10:52:53.743Z,50.73
2023-02-24T10:57:59.170Z,50.65
2023-02-24T11:03:10.937Z,50.51
2023-02-24T11:08:08.848Z,50.63
2023-02-24T11:13:20.295Z,50.57
2023-02-24T11:18:28.303Z,50.56
2023-02-24T11:23:27.820Z,50.43
2023-02-24T11:28:32.554Z,50.64
2023-02-24T11:33:31.099Z,50.33
2023-02-24T11:38:41.520Z,50.31
2023-02-24T11:43:38.400Z,50.38
2023-02-24T11:48:37.714Z,50.36
2023-02-24T11:53:52.067Z,50.29
2023-02-24T11:59:20.090Z,50.06
2023-02-24T12:04:31.456Z,50.39
2023-02-24T12:09:31.495Z,50.30
2023-02-24T12:14:37.031Z,50.04
2023-02-24T12:19:37.878Z,50.28
2023-02-24T12:24:31.607Z,49.72
2023-02-24T12:29:46.472Z,49.69
2023-02-24T12:35:07.778Z,49.95
2023-02-24T12:40:15.888Z,49.88
2023-02-24T12:45:27.598Z,49.82
2023-02-24T12:50:40.824Z,50.10
2023-02-24T12:56:15.495Z,50.19
2023-02-24T13:01:35.310Z,50.90
2023-02-24T13:06:55.938Z,51.11
2023-02-24T13:12:36.662Z,51.15
2023-02-24T13:17:30.376Z,51.56
2023-02-24T13:22:50.616Z,51.47
2023-02-24T13:27:43.956Z,51.47
2023-02-24T13:32:39.978Z,51.35
2023-02-24T13:37:39.636Z,51.49
2023-02-24T13:42:32.845Z,51.45
2023-02-24T13:47:46.496Z,51.59
2023-02-24T13:52:48.096Z,51.47
2023-02-24T13:57:46.377Z,51.60
2023-02-24T14:02:44.642Z,51.28
2023-02-24T14:07:40.432Z,51.36
2023-02-24T14:12:35.208Z,51.36
2023-02-24T14:17:31.149Z,51.47
2023-02-24T14:22:24.010Z,51.39
2023-02-24T14:27:40.789Z,51.38
2023-02-24T14:32:34.967Z,51.47
2023-02-24T14:37:31.329Z,51.58
2023-02-24T14:42:26.218Z,51.72
2023-02-24T14:47:22.063Z,51.56
2023-02-24T14:52:28.573Z,51.54
2023-02-24T14:57:29.635Z,51.56
2023-02-24T15:02:29.141Z,51.47
2023-02-24T15:07:29.089Z,51.62
2023-02-24T15:12:51.941Z,51.56
2023-02-24T15:17:46.054Z,51.52
2023-02-24T15:22:50.604Z,51.59
2023-02-24T15:28:02.136Z,51.75
2023-02-24T15:33:18.961Z,51.63
2023-02-24T15:38:23.046Z,51.70
2023-02-24T15:43:33.118Z,51.72
2023-02-24T15:48:31.307Z,51.75
2023-02-24T15:53:24.284Z,51.66
2023-02-24T15:58:18.558Z,51.60
2023-02-24T16:03:11.410Z,51.81
2023-02-24T16:08:04.816Z,51.67
2023-02-24T16:13:01.893Z,51.66
2023-02-24T16:17:56.178Z,51.73
2023-02-24T16:22:48.736Z,51.70
2023-02-24T16:27:41.586Z,51.72
2023-02-24T16:32:35.458Z,51.76
2023-02-24T16:37:30.776Z,51.87
2023-02-24T16:42:31.260Z,51.79
2023-02-24T16:47:32.259Z,51.85
2023-02-24T16:52:25.675Z,52.09
2023-02-24T16:57:18.775Z,52.24
2023-02-24T17:02:20.187Z,52.13
2023-02-24T17:07:15.408Z,52.09
2023-02-24T17:12:12.414Z,52.14
2023-02-24T17:17:05.121Z,52.21
2023-02-24T17:21:58.954Z,52.05
2023-02-24T17:26:53.236Z,52.23
2023-02-24T17:31:47.836Z,52.09
2023-02-24T17:36:41.327Z,51.86
2023-02-24T17:41:34.153Z,52.73
2023-02-24T17:46:27.380Z,52.49
2023-02-24T17:51:21.528Z,52.63
2023-02-24T17:56:15.113Z,52.48
2023-02-24T18:01:11.529Z,52.72
2023-02-24T18:06:16.486Z,52.70
2023-02-24T18:11:16.887Z,53.36
2023-02-24T18:16:13.879Z,54.38
2023-02-24T18:21:08.918Z,54.67
2023-02-24T18:26:03.888Z,55.44
2023-02-24T18:30:57.080Z,56.04
2023-02-24T18:35:58.964Z,57.20
2023-02-24T18:41:02.781Z,57.25
2023-02-24T18:46:00.289Z,56.80
2023-02-24T18:50:54.021Z,50.13
2023-02-24T18:55:46.945Z,48.30
2023-02-24T19:00:40.062Z,49.65
2023-02-24T19:05:38.527Z,48.02
2023-02-24T19:10:32.012Z,46.91
2023-02-24T19:15:28.405Z,46.66
2023-02-24T19:20:21.878Z,51.08
2023-02-24T19:25:15.163Z,51.68
2023-02-24T19:30:10.570Z,52.01
2023-02-24T19:35:03.701Z,52.40
2023-02-24T19:39:57.107Z,52.42
2023-02-24T19:44:51.432Z,52.82
2023-02-24T19:49:44.077Z,53.20
2023-02-24T19:54:36.487Z,53.34
2023-02-24T19:59:30.059Z,54.07
2023-02-24T20:04:25.033Z,54.25
2023-02-24T20:09:21.352Z,54.54
2023-02-24T20:14:16.436Z,54.28
2023-02-24T20:19:11.764Z,54.32
2023-02-24T20:24:08.893Z,54.18
2023-02-24T20:29:01.484Z,54.30
2023-02-24T20:33:54.374Z,54.27
2023-02-24T20:38:47.513Z,54.67
2023-02-24T20:43:41.321Z,54.62
2023-02-24T20:48:34.617Z,54.22
2023-02-24T20:53:27.948Z,54.25
2023-02-24T20:58:21.572Z,54.17
2023-02-24T21:03:14.789Z,54.26
2023-02-24T21:08:08.562Z,54.30
2023-02-24T21:13:01.320Z,54.13
2023-02-24T21:17:53.593Z,54.10
2023-02-24T21:22:45.673Z,54.14
2023-02-24T21:27:39.011Z,54.19
2023-02-24T21:32:31.267Z,54.46
2023-02-24T21:37:25.123Z,54.17
2023-02-24T21:42:17.706Z,54.49
2023-02-24T21:47:10.993Z,54.49
2023-02-24T21:52:05.936Z,54.57
2023-02-24T21:56:59.185Z,54.80
2023-02-24T22:01:52.332Z,54.56
2023-02-24T22:06:45.651Z,54.63
2023-02-24T22:11:42.129Z,54.62
2023-02-24T22:16:34.090Z,54.86
2023-02-24T22:21:29.556Z,54.94
2023-02-24T22:26:24.004Z,54.75
2023-02-24T22:31:19.483Z,54.79
2023-02-24T22:36:39.474Z,54.80
2023-02-24T22:41:34.839Z,54.45
2023-02-24T22:46:33.831Z,54.49
2023-02-24T22:51:28.570Z,54.37
2023-02-24T22:56:24.004Z,54.14
2023-02-24T23:01:22.332Z,54.51
2023-02-24T23:06:17.874Z,54.09
2023-02-24T23:11:18.820Z,54.16
2023-02-24T23:16:13.581Z,54.15
2023-02-24T23:21:09.866Z,54.02
2023-02-24T23:26:04.036Z,54.15
2023-02-24T23:30:57.739Z,54.24
2023-02-24T23:35:50.951Z,53.87
2023-02-24T23:40:50.059Z,54.11
2023-02-24T23:45:44.497Z,53.87
2023-02-24T23:50:40.757Z,53.70
2023-02-24T23:55:36.688Z,53.80
